sensor_id;sensor_type;location;lat;lon;timestamp;P1;durP1;ratioP1;P2;durP2;ratioP2
76788;SDS011;65740;52.464;13.446;2023-12-04T00:01:49;18.67;;;17.57;;
76788;SDS011;65740;52.464;13.446;2023-12-04T00:04:15;19.53;;;18.23;;
76788;SDS011;65740;52.464;13.446;2023-12-04T00:06:41;19.90;;;18.70;;
76788;SDS011;65740;52.464;13.446;2023-12-04T00:09:06;18.83;;;17.80;;
76788;SDS011;65740;52.464;13.446;2023-12-04T00:11:32;18.57;;;17.43;;
76788;SDS011;65740;52.464;13.446;2023-12-04T00:13:58;18.57;;;17.57;;
76788;SDS011;65740;52.464;13.446;2023-12-04T00:16:24;19.40;;;18.20;;
76788;SDS011;65740;52.464;13.446;2023-12-04T00:18:50;18.77;;;17.77;;
76788;SDS011;65740;52.464;13.446;2023-12-04T00:21:15;18.63;;;17.53;;
76788;SDS011;65740;52.464;13.446;2023-12-04T00:23:41;18.80;;;17.37;;
76788;SDS011;65740;52.464;13.446;2023-12-04T00:26:06;18.87;;;17.67;;
76788;SDS011;65740;52.464;13.446;2023-12-04T00:28:35;18.20;;;17.23;;
76788;SDS011;65740;52.464;13.446;2023-12-04T00:31:02;18.43;;;17.30;;
76788;SDS011;65740;52.464;13.446;2023-12-04T00:33:27;18.13;;;17.10;;
76788;SDS011;65740;52.464;13.446;2023-12-04T00:35:53;19.00;;;17.80;;
76788;SDS011;65740;52.464;13.446;2023-12-04T00:38:19;19.40;;;18.30;;
76788;SDS011;65740;52.464;13.446;2023-12-04T00:40:44;18.70;;;17.53;;
76788;SDS011;65740;52.464;13.446;2023-12-04T00:43:10;18.87;;;17.80;;
76788;SDS011;65740;52.464;13.446;2023-12-04T00:45:36;18.50;;;17.50;;
76788;SDS011;65740;52.464;13.446;2023-12-04T00:48:02;18.10;;;17.10;;
76788;SDS011;65740;52.464;13.446;2023-12-04T00:50:27;18.17;;;17.17;;
76788;SDS011;65740;52.464;13.446;2023-12-04T00:52:53;18.50;;;17.40;;
76788;SDS011;65740;52.464;13.446;2023-12-04T00:55:19;18.20;;;17.20;;
76788;SDS011;65740;52.464;13.446;2023-12-04T00:57:45;18.43;;;17.20;;
76788;SDS011;65740;52.464;13.446;2023-12-04T01:00:11;18.00;;;17.00;;
76788;SDS011;65740;52.464;13.446;2023-12-04T01:02:37;18.43;;;17.33;;
76788;SDS011;65740;52.464;13.446;2023-12-04T01:05:03;18.77;;;17.57;;
76788;SDS011;65740;52.464;13.446;2023-12-04T01:07:29;18.17;;;17.07;;
76788;SDS011;65740;52.464;13.446;2023-12-04T01:09:54;19.07;;;17.97;;
76788;SDS011;65740;52.464;13.446;2023-12-04T01:12:20;18.53;;;17.53;;
76788;SDS011;65740;52.464;13.446;2023-12-04T01:14:46;18.70;;;17.70;;
76788;SDS011;65740;52.464;13.446;2023-12-04T01:17:12;18.83;;;17.57;;
76788;SDS011;65740;52.464;13.446;2023-12-04T01:19:37;18.37;;;17.30;;
76788;SDS011;65740;52.464;13.446;2023-12-04T01:22:04;18.30;;;17.30;;
76788;SDS011;65740;52.464;13.446;2023-12-04T01:24:30;18.87;;;17.77;;
76788;SDS011;65740;52.464;13.446;2023-12-04T01:26:56;19.20;;;18.10;;
76788;SDS011;65740;52.464;13.446;2023-12-04T01:29:21;18.40;;;17.40;;
76788;SDS011;65740;52.464;13.446;2023-12-04T01:31:47;18.50;;;17.40;;
76788;SDS011;65740;52.464;13.446;2023-12-04T01:34:12;17.83;;;16.83;;
76788;SDS011;65740;52.464;13.446;2023-12-04T01:36:41;18.20;;;17.20;;
76788;SDS011;65740;52.464;13.446;2023-12-04T01:39:06;18.43;;;17.20;;
76788;SDS011;65740;52.464;13.446;2023-12-04T01:41:32;18.60;;;17.60;;
76788;SDS011;65740;52.464;13.446;2023-12-04T01:43:58;18.63;;;17.53;;
76788;SDS011;65740;52.464;13.446;2023-12-04T01:46:23;17.70;;;16.70;;
76788;SDS011;65740;52.464;13.446;2023-12-04T01:48:50;18.17;;;17.17;;
76788;SDS011;65740;52.464;13.446;2023-12-04T01:51:15;18.30;;;17.20;;
76788;SDS011;65740;52.464;13.446;2023-12-04T01:53:42;18.20;;;17.20;;
76788;SDS011;65740;52.464;13.446;2023-12-04T01:56:09;18.17;;;17.17;;
76788;SDS011;65740;52.464;13.446;2023-12-04T01:58:35;17.83;;;16.90;;
76788;SDS011;65740;52.464;13.446;2023-12-04T02:01:01;18.07;;;17.07;;
76788;SDS011;65740;52.464;13.446;2023-12-04T02:03:28;18.53;;;17.53;;
76788;SDS011;65740;52.464;13.446;2023-12-04T02:05:54;18.17;;;17.17;;
76788;SDS011;65740;52.464;13.446;2023-12-04T02:08:24;18.00;;;17.10;;
76788;SDS011;65740;52.464;13.446;2023-12-04T02:10:50;17.57;;;16.57;;
76788;SDS011;65740;52.464;13.446;2023-12-04T02:13:15;17.80;;;16.83;;
76788;SDS011;65740;52.464;13.446;2023-12-04T02:15:41;18.13;;;17.13;;
76788;SDS011;65740;52.464;13.446;2023-12-04T02:18:07;16.87;;;16.07;;
76788;SDS011;65740;52.464;13.446;2023-12-04T02:20:33;18.40;;;17.30;;
76788;SDS011;65740;52.464;13.446;2023-12-04T02:23:00;18.40;;;17.30;;
76788;SDS011;65740;52.464;13.446;2023-12-04T02:25:26;18.17;;;17.27;;
76788;SDS011;65740;52.464;13.446;2023-12-04T02:27:53;18.30;;;17.10;;
76788;SDS011;65740;52.464;13.446;2023-12-04T02:30:21;18.03;;;17.03;;
76788;SDS011;65740;52.464;13.446;2023-12-04T02:32:48;17.77;;;16.67;;
76788;SDS011;65740;52.464;13.446;2023-12-04T02:35:16;17.80;;;16.90;;
76788;SDS011;65740;52.464;13.446;2023-12-04T02:37:46;17.77;;;16.90;;
76788;SDS011;65740;52.464;13.446;2023-12-04T02:40:12;17.03;;;16.13;;
76788;SDS011;65740;52.464;13.446;2023-12-04T02:42:38;17.97;;;16.97;;
76788;SDS011;65740;52.464;13.446;2023-12-04T02:45:04;17.57;;;16.67;;
76788;SDS011;65740;52.464;13.446;2023-12-04T02:47:30;17.33;;;16.43;;
76788;SDS011;65740;52.464;13.446;2023-12-04T02:49:55;17.80;;;16.83;;
76788;SDS011;65740;52.464;13.446;2023-12-04T02:52:21;17.27;;;16.40;;
76788;SDS011;65740;52.464;13.446;2023-12-04T02:54:47;17.80;;;16.90;;
76788;SDS011;65740;52.464;13.446;2023-12-04T02:57:12;17.20;;;16.20;;
76788;SDS011;65740;52.464;13.446;2023-12-04T02:59:38;18.10;;;17.00;;
76788;SDS011;65740;52.464;13.446;2023-12-04T03:02:03;17.23;;;16.43;;
76788;SDS011;65740;52.464;13.446;2023-12-04T03:04:30;17.57;;;16.67;;
76788;SDS011;65740;52.464;13.446;2023-12-04T03:06:56;17.70;;;16.80;;
76788;SDS011;65740;52.464;13.446;2023-12-04T03:09:22;17.93;;;16.77;;
76788;SDS011;65740;52.464;13.446;2023-12-04T03:11:47;17.57;;;16.67;;
76788;SDS011;65740;52.464;13.446;2023-12-04T03:14:13;17.83;;;16.93;;
76788;SDS011;65740;52.464;13.446;2023-12-04T03:16:39;18.27;;;17.27;;
76788;SDS011;65740;52.464;13.446;2023-12-04T03:19:05;17.90;;;16.97;;
76788;SDS011;65740;52.464;13.446;2023-12-04T03:21:30;17.80;;;16.90;;
76788;SDS011;65740;52.464;13.446;2023-12-04T03:23:56;17.03;;;16.17;;
76788;SDS011;65740;52.464;13.446;2023-12-04T03:26:22;17.20;;;16.30;;
76788;SDS011;65740;52.464;13.446;2023-12-04T03:28:47;17.37;;;16.47;;
76788;SDS011;65740;52.464;13.446;2023-12-04T03:31:13;18.07;;;17.17;;
76788;SDS011;65740;52.464;13.446;2023-12-04T03:33:38;17.87;;;16.87;;
76788;SDS011;65740;52.464;13.446;2023-12-04T03:36:04;16.90;;;16.00;;
76788;SDS011;65740;52.464;13.446;2023-12-04T03:38:30;17.40;;;16.50;;
76788;SDS011;65740;52.464;13.446;2023-12-04T03:40:56;17.30;;;16.40;;
76788;SDS011;65740;52.464;13.446;2023-12-04T03:43:21;17.00;;;16.13;;
76788;SDS011;65740;52.464;13.446;2023-12-04T03:45:47;17.80;;;16.80;;
76788;SDS011;65740;52.464;13.446;2023-12-04T03:48:13;17.73;;;16.83;;
76788;SDS011;65740;52.464;13.446;2023-12-04T03:50:38;17.50;;;16.60;;
76788;SDS011;65740;52.464;13.446;2023-12-04T03:53:04;17.30;;;16.33;;
76788;SDS011;65740;52.464;13.446;2023-12-04T03:55:29;18.27;;;17.17;;
76788;SDS011;65740;52.464;13.446;2023-12-04T03:57:56;17.67;;;16.77;;
76788;SDS011;65740;52.464;13.446;2023-12-04T04:00:22;17.73;;;16.73;;
76788;SDS011;65740;52.464;13.446;2023-12-04T04:02:48;17.63;;;16.63;;
76788;SDS011;65740;52.464;13.446;2023-12-04T04:05:14;17.53;;;16.53;;
76788;SDS011;65740;52.464;13.446;2023-12-04T04:07:40;17.37;;;16.47;;
76788;SDS011;65740;52.464;13.446;2023-12-04T04:10:06;17.60;;;16.70;;
76788;SDS011;65740;52.464;13.446;2023-12-04T04:12:33;17.40;;;16.50;;
76788;SDS011;65740;52.464;13.446;2023-12-04T04:14:59;17.83;;;16.93;;
76788;SDS011;65740;52.464;13.446;2023-12-04T04:17:24;18.37;;;17.37;;
76788;SDS011;65740;52.464;13.446;2023-12-04T04:19:54;17.97;;;16.97;;
76788;SDS011;65740;52.464;13.446;2023-12-04T04:22:20;17.43;;;16.53;;
76788;SDS011;65740;52.464;13.446;2023-12-04T04:24:46;17.80;;;16.90;;
76788;SDS011;65740;52.464;13.446;2023-12-04T04:27:13;17.30;;;16.40;;
76788;SDS011;65740;52.464;13.446;2023-12-04T04:29:38;17.67;;;16.80;;
76788;SDS011;65740;52.464;13.446;2023-12-04T04:32:04;17.23;;;16.33;;
76788;SDS011;65740;52.464;13.446;2023-12-04T04:34:30;17.70;;;16.80;;
76788;SDS011;65740;52.464;13.446;2023-12-04T04:36:56;18.17;;;17.07;;
76788;SDS011;65740;52.464;13.446;2023-12-04T04:39:21;17.80;;;16.90;;
76788;SDS011;65740;52.464;13.446;2023-12-04T04:41:47;17.23;;;16.33;;
76788;SDS011;65740;52.464;13.446;2023-12-04T04:44:13;17.23;;;16.43;;
76788;SDS011;65740;52.464;13.446;2023-12-04T04:46:38;17.73;;;16.80;;
76788;SDS011;65740;52.464;13.446;2023-12-04T04:49:04;18.00;;;17.00;;
76788;SDS011;65740;52.464;13.446;2023-12-04T04:51:32;17.50;;;16.60;;
76788;SDS011;65740;52.464;13.446;2023-12-04T04:53:59;17.97;;;17.00;;
76788;SDS011;65740;52.464;13.446;2023-12-04T04:56:25;17.63;;;16.67;;
76788;SDS011;65740;52.464;13.446;2023-12-04T04:58:51;17.83;;;16.93;;
76788;SDS011;65740;52.464;13.446;2023-12-04T05:01:16;17.97;;;16.87;;
76788;SDS011;65740;52.464;13.446;2023-12-04T05:03:42;17.37;;;16.47;;
76788;SDS011;65740;52.464;13.446;2023-12-04T05:06:08;17.73;;;16.83;;
76788;SDS011;65740;52.464;13.446;2023-12-04T05:08:33;17.37;;;16.47;;
76788;SDS011;65740;52.464;13.446;2023-12-04T05:10:59;16.93;;;16.07;;
76788;SDS011;65740;52.464;13.446;2023-12-04T05:13:25;17.37;;;16.47;;
76788;SDS011;65740;52.464;13.446;2023-12-04T05:15:50;18.33;;;17.10;;
76788;SDS011;65740;52.464;13.446;2023-12-04T05:18:16;17.17;;;16.27;;
76788;SDS011;65740;52.464;13.446;2023-12-04T05:20:41;17.67;;;16.73;;
76788;SDS011;65740;52.464;13.446;2023-12-04T05:23:07;17.63;;;16.63;;
76788;SDS011;65740;52.464;13.446;2023-12-04T05:25:33;18.23;;;17.23;;
76788;SDS011;65740;52.464;13.446;2023-12-04T05:27:58;17.70;;;16.80;;
76788;SDS011;65740;52.464;13.446;2023-12-04T05:30:24;17.20;;;16.30;;
76788;SDS011;65740;52.464;13.446;2023-12-04T05:32:49;17.27;;;16.37;;
76788;SDS011;65740;52.464;13.446;2023-12-04T05:35:15;17.30;;;16.40;;
76788;SDS011;65740;52.464;13.446;2023-12-04T05:37:42;17.50;;;16.60;;
76788;SDS011;65740;52.464;13.446;2023-12-04T05:40:07;17.87;;;16.97;;
76788;SDS011;65740;52.464;13.446;2023-12-04T05:42:33;17.60;;;16.70;;
76788;SDS011;65740;52.464;13.446;2023-12-04T05:44:59;17.30;;;16.40;;
76788;SDS011;65740;52.464;13.446;2023-12-04T05:47:25;17.17;;;16.27;;
76788;SDS011;65740;52.464;13.446;2023-12-04T05:49:51;17.70;;;16.80;;
76788;SDS011;65740;52.464;13.446;2023-12-04T05:52:17;17.73;;;16.83;;
76788;SDS011;65740;52.464;13.446;2023-12-04T05:54:42;17.23;;;16.40;;
76788;SDS011;65740;52.464;13.446;2023-12-04T05:57:08;18.43;;;17.30;;
76788;SDS011;65740;52.464;13.446;2023-12-04T05:59:33;18.67;;;17.77;;
76788;SDS011;65740;52.464;13.446;2023-12-04T06:01:59;18.90;;;17.90;;
76788;SDS011;65740;52.464;13.446;2023-12-04T06:04:26;17.83;;;16.93;;
76788;SDS011;65740;52.464;13.446;2023-12-04T06:06:52;18.40;;;17.50;;
76788;SDS011;65740;52.464;13.446;2023-12-04T06:09:17;17.83;;;16.97;;
76788;SDS011;65740;52.464;13.446;2023-12-04T06:11:43;17.60;;;16.70;;
76788;SDS011;65740;52.464;13.446;2023-12-04T06:14:09;18.10;;;17.20;;
76788;SDS011;65740;52.464;13.446;2023-12-04T06:16:35;18.50;;;17.60;;
76788;SDS011;65740;52.464;13.446;2023-12-04T06:19:01;18.07;;;17.17;;
76788;SDS011;65740;52.464;13.446;2023-12-04T06:21:28;18.07;;;17.27;;
76788;SDS011;65740;52.464;13.446;2023-12-04T06:23:54;18.40;;;17.50;;
76788;SDS011;65740;52.464;13.446;2023-12-04T06:26:20;17.93;;;17.03;;
76788;SDS011;65740;52.464;13.446;2023-12-04T06:28:46;18.00;;;17.10;;
76788;SDS011;65740;52.464;13.446;2023-12-04T06:31:12;19.00;;;17.97;;
76788;SDS011;65740;52.464;13.446;2023-12-04T06:33:38;18.20;;;17.30;;
76788;SDS011;65740;52.464;13.446;2023-12-04T06:36:04;19.07;;;18.17;;
76788;SDS011;65740;52.464;13.446;2023-12-04T06:38:32;21.20;;;20.10;;
76788;SDS011;65740;52.464;13.446;2023-12-04T06:41:03;19.17;;;18.27;;
76788;SDS011;65740;52.464;13.446;2023-12-04T06:43:29;19.83;;;18.83;;
76788;SDS011;65740;52.464;13.446;2023-12-04T06:45:55;19.67;;;18.67;;
76788;SDS011;65740;52.464;13.446;2023-12-04T06:48:23;20.17;;;19.17;;
76788;SDS011;65740;52.464;13.446;2023-12-04T06:50:49;19.60;;;18.70;;
76788;SDS011;65740;52.464;13.446;2023-12-04T06:53:15;19.43;;;18.43;;
76788;SDS011;65740;52.464;13.446;2023-12-04T06:55:40;18.90;;;18.00;;
76788;SDS011;65740;52.464;13.446;2023-12-04T06:58:06;19.87;;;18.97;;
76788;SDS011;65740;52.464;13.446;2023-12-04T07:00:32;20.13;;;19.03;;
76788;SDS011;65740;52.464;13.446;2023-12-04T07:02:57;18.93;;;18.07;;
76788;SDS011;65740;52.464;13.446;2023-12-04T07:05:23;20.33;;;19.33;;
76788;SDS011;65740;52.464;13.446;2023-12-04T07:07:48;20.20;;;19.30;;
76788;SDS011;65740;52.464;13.446;2023-12-04T07:10:14;18.80;;;17.90;;
76788;SDS011;65740;52.464;13.446;2023-12-04T07:12:41;19.30;;;18.40;;
76788;SDS011;65740;52.464;13.446;2023-12-04T07:15:07;19.17;;;18.27;;
76788;SDS011;65740;52.464;13.446;2023-12-04T07:17:34;19.73;;;18.73;;
76788;SDS011;65740;52.464;13.446;2023-12-04T07:20:01;20.57;;;19.57;;
76788;SDS011;65740;52.464;13.446;2023-12-04T07:22:26;19.53;;;18.63;;
76788;SDS011;65740;52.464;13.446;2023-12-04T07:24:52;19.27;;;18.37;;
76788;SDS011;65740;52.464;13.446;2023-12-04T07:27:17;19.83;;;18.93;;
76788;SDS011;65740;52.464;13.446;2023-12-04T07:29:43;19.80;;;18.80;;
76788;SDS011;65740;52.464;13.446;2023-12-04T07:32:09;19.60;;;18.70;;
76788;SDS011;65740;52.464;13.446;2023-12-04T07:34:34;20.13;;;19.13;;
76788;SDS011;65740;52.464;13.446;2023-12-04T07:37:00;19.53;;;18.63;;
76788;SDS011;65740;52.464;13.446;2023-12-04T07:39:26;19.37;;;18.47;;
76788;SDS011;65740;52.464;13.446;2023-12-04T07:41:51;19.60;;;18.70;;
76788;SDS011;65740;52.464;13.446;2023-12-04T07:44:17;19.77;;;18.87;;
76788;SDS011;65740;52.464;13.446;2023-12-04T07:46:43;20.10;;;19.10;;
76788;SDS011;65740;52.464;13.446;2023-12-04T07:49:08;19.80;;;18.80;;
76788;SDS011;65740;52.464;13.446;2023-12-04T07:51:34;19.80;;;18.90;;
76788;SDS011;65740;52.464;13.446;2023-12-04T07:54:00;19.80;;;18.80;;
76788;SDS011;65740;52.464;13.446;2023-12-04T07:56:26;19.37;;;18.47;;
76788;SDS011;65740;52.464;13.446;2023-12-04T07:58:51;20.30;;;19.30;;
76788;SDS011;65740;52.464;13.446;2023-12-04T08:01:17;19.87;;;18.87;;
76788;SDS011;65740;52.464;13.446;2023-12-04T08:03:42;19.20;;;18.30;;
76788;SDS011;65740;52.464;13.446;2023-12-04T08:06:08;19.57;;;18.57;;
76788;SDS011;65740;52.464;13.446;2023-12-04T08:08:34;18.33;;;17.50;;
76788;SDS011;65740;52.464;13.446;2023-12-04T08:10:59;19.23;;;18.33;;
76788;SDS011;65740;52.464;13.446;2023-12-04T08:13:25;18.97;;;17.90;;
76788;SDS011;65740;52.464;13.446;2023-12-04T08:15:50;19.30;;;18.40;;
76788;SDS011;65740;52.464;13.446;2023-12-04T08:18:16;18.97;;;18.07;;
76788;SDS011;65740;52.464;13.446;2023-12-04T08:20:42;18.90;;;17.90;;
76788;SDS011;65740;52.464;13.446;2023-12-04T08:23:08;18.63;;;17.60;;
76788;SDS011;65740;52.464;13.446;2023-12-04T08:25:34;18.87;;;17.87;;
76788;SDS011;65740;52.464;13.446;2023-12-04T08:28:03;18.90;;;18.00;;
76788;SDS011;65740;52.464;13.446;2023-12-04T08:30:29;18.77;;;17.87;;
76788;SDS011;65740;52.464;13.446;2023-12-04T08:32:55;19.40;;;18.33;;
76788;SDS011;65740;52.464;13.446;2023-12-04T08:35:21;21.20;;;19.60;;
76788;SDS011;65740;52.464;13.446;2023-12-04T08:37:47;19.90;;;18.47;;
76788;SDS011;65740;52.464;13.446;2023-12-04T08:40:12;20.17;;;18.67;;
76788;SDS011;65740;52.464;13.446;2023-12-04T08:42:38;19.57;;;17.80;;
76788;SDS011;65740;52.464;13.446;2023-12-04T08:45:04;19.23;;;17.90;;
76788;SDS011;65740;52.464;13.446;2023-12-04T08:47:31;21.33;;;19.13;;
76788;SDS011;65740;52.464;13.446;2023-12-04T08:49:57;20.83;;;18.80;;
76788;SDS011;65740;52.464;13.446;2023-12-04T08:52:22;19.77;;;18.17;;
76788;SDS011;65740;52.464;13.446;2023-12-04T08:54:48;19.23;;;17.73;;
76788;SDS011;65740;52.464;13.446;2023-12-04T08:57:14;21.00;;;19.03;;
76788;SDS011;65740;52.464;13.446;2023-12-04T08:59:39;21.70;;;19.80;;
76788;SDS011;65740;52.464;13.446;2023-12-04T09:02:05;21.87;;;20.10;;
76788;SDS011;65740;52.464;13.446;2023-12-04T09:04:31;22.17;;;19.80;;
76788;SDS011;65740;52.464;13.446;2023-12-04T09:06:57;20.57;;;19.10;;
76788;SDS011;65740;52.464;13.446;2023-12-04T09:09:23;20.80;;;19.30;;
76788;SDS011;65740;52.464;13.446;2023-12-04T09:11:49;21.83;;;19.80;;
76788;SDS011;65740;52.464;13.446;2023-12-04T09:14:15;20.30;;;18.60;;
76788;SDS011;65740;52.464;13.446;2023-12-04T09:16:41;21.30;;;19.47;;
76788;SDS011;65740;52.464;13.446;2023-12-04T09:19:07;20.23;;;18.80;;
76788;SDS011;65740;52.464;13.446;2023-12-04T09:21:33;20.83;;;19.03;;
76788;SDS011;65740;52.464;13.446;2023-12-04T09:24:00;21.13;;;19.17;;
76788;SDS011;65740;52.464;13.446;2023-12-04T09:26:26;20.53;;;18.73;;
76788;SDS011;65740;52.464;13.446;2023-12-04T09:28:52;20.87;;;19.17;;
76788;SDS011;65740;52.464;13.446;2023-12-04T09:31:18;21.00;;;19.33;;
76788;SDS011;65740;52.464;13.446;2023-12-04T09:33:44;20.10;;;18.90;;
76788;SDS011;65740;52.464;13.446;2023-12-04T09:36:10;20.33;;;19.13;;
76788;SDS011;65740;52.464;13.446;2023-12-04T09:38:36;19.97;;;18.67;;
76788;SDS011;65740;52.464;13.446;2023-12-04T09:41:01;20.97;;;19.60;;
76788;SDS011;65740;52.464;13.446;2023-12-04T09:43:29;20.50;;;19.20;;
76788;SDS011;65740;52.464;13.446;2023-12-04T09:45:56;20.73;;;19.10;;
76788;SDS011;65740;52.464;13.446;2023-12-04T09:48:26;20.30;;;19.27;;
76788;SDS011;65740;52.464;13.446;2023-12-04T09:50:52;19.60;;;18.40;;
76788;SDS011;65740;52.464;13.446;2023-12-04T09:53:19;19.57;;;18.47;;
76788;SDS011;65740;52.464;13.446;2023-12-04T09:55:48;20.10;;;18.80;;
76788;SDS011;65740;52.464;13.446;2023-12-04T09:58:14;19.30;;;17.93;;
76788;SDS011;65740;52.464;13.446;2023-12-04T10:00:41;19.57;;;18.23;;
76788;SDS011;65740;52.464;13.446;2023-12-04T10:03:08;20.40;;;19.20;;
76788;SDS011;65740;52.464;13.446;2023-12-04T10:05:33;22.10;;;20.30;;
76788;SDS011;65740;52.464;13.446;2023-12-04T10:07:59;20.67;;;19.27;;
76788;SDS011;65740;52.464;13.446;2023-12-04T10:10:25;20.10;;;18.70;;
76788;SDS011;65740;52.464;13.446;2023-12-04T10:12:51;20.00;;;18.87;;
76788;SDS011;65740;52.464;13.446;2023-12-04T10:15:17;21.53;;;20.00;;
76788;SDS011;65740;52.464;13.446;2023-12-04T10:17:42;22.00;;;20.30;;
76788;SDS011;65740;52.464;13.446;2023-12-04T10:20:12;21.37;;;19.20;;
76788;SDS011;65740;52.464;13.446;2023-12-04T10:22:58;21.37;;;19.37;;
76788;SDS011;65740;52.464;13.446;2023-12-04T10:25:28;21.53;;;19.63;;
76788;SDS011;65740;52.464;13.446;2023-12-04T10:28:17;29.33;;;21.17;;
76788;SDS011;65740;52.464;13.446;2023-12-04T10:30:42;21.53;;;19.63;;
76788;SDS011;65740;52.464;13.446;2023-12-04T10:33:08;21.50;;;19.30;;
76788;SDS011;65740;52.464;13.446;2023-12-04T10:35:35;22.30;;;20.40;;
76788;SDS011;65740;52.464;13.446;2023-12-04T10:38:01;21.93;;;19.80;;
76788;SDS011;65740;52.464;13.446;2023-12-04T10:40:29;21.00;;;19.43;;
76788;SDS011;65740;52.464;13.446;2023-12-04T10:45:34;21.50;;;19.90;;
76788;SDS011;65740;52.464;13.446;2023-12-04T10:48:01;20.60;;;18.90;;
76788;SDS011;65740;52.464;13.446;2023-12-04T10:50:30;21.30;;;19.07;;
76788;SDS011;65740;52.464;13.446;2023-12-04T10:53:03;21.80;;;19.93;;
76788;SDS011;65740;52.464;13.446;2023-12-04T10:55:30;24.20;;;20.40;;
76788;SDS011;65740;52.464;13.446;2023-12-04T10:57:56;21.50;;;19.67;;
76788;SDS011;65740;52.464;13.446;2023-12-04T11:00:24;20.20;;;18.80;;
76788;SDS011;65740;52.464;13.446;2023-12-04T11:02:50;21.37;;;19.53;;
76788;SDS011;65740;52.464;13.446;2023-12-04T11:05:20;22.53;;;20.20;;
76788;SDS011;65740;52.464;13.446;2023-12-04T11:07:48;21.37;;;19.80;;
76788;SDS011;65740;52.464;13.446;2023-12-04T11:10:22;21.83;;;19.83;;
76788;SDS011;65740;52.464;13.446;2023-12-04T11:12:54;20.67;;;19.17;;
76788;SDS011;65740;52.464;13.446;2023-12-04T11:15:25;21.37;;;19.67;;
76788;SDS011;65740;52.464;13.446;2023-12-04T11:17:54;21.10;;;19.50;;
76788;SDS011;65740;52.464;13.446;2023-12-04T11:20:24;21.50;;;19.87;;
76788;SDS011;65740;52.464;13.446;2023-12-04T11:22:54;21.17;;;19.70;;
76788;SDS011;65740;52.464;13.446;2023-12-04T11:25:21;20.63;;;19.03;;
76788;SDS011;65740;52.464;13.446;2023-12-04T11:27:50;21.73;;;19.87;;
76788;SDS011;65740;52.464;13.446;2023-12-04T11:30:17;20.90;;;18.83;;
76788;SDS011;65740;52.464;13.446;2023-12-04T11:32:44;22.30;;;20.70;;
76788;SDS011;65740;52.464;13.446;2023-12-04T11:35:17;21.90;;;20.00;;
76788;SDS011;65740;52.464;13.446;2023-12-04T11:37:46;20.97;;;19.50;;
76788;SDS011;65740;52.464;13.446;2023-12-04T11:40:13;19.90;;;18.17;;
76788;SDS011;65740;52.464;13.446;2023-12-04T11:42:41;20.83;;;18.80;;
76788;SDS011;65740;52.464;13.446;2023-12-04T11:45:07;18.57;;;17.30;;
76788;SDS011;65740;52.464;13.446;2023-12-04T11:47:53;20.30;;;18.53;;
76788;SDS011;65740;52.464;13.446;2023-12-04T11:50:20;20.23;;;18.83;;
76788;SDS011;65740;52.464;13.446;2023-12-04T11:52:47;20.83;;;19.23;;
76788;SDS011;65740;52.464;13.446;2023-12-04T11:55:15;20.07;;;18.63;;
76788;SDS011;65740;52.464;13.446;2023-12-04T11:57:51;22.00;;;19.97;;
76788;SDS011;65740;52.464;13.446;2023-12-04T12:00:20;21.90;;;20.00;;
76788;SDS011;65740;52.464;13.446;2023-12-04T12:05:19;22.43;;;20.67;;
76788;SDS011;65740;52.464;13.446;2023-12-04T12:07:48;22.57;;;20.47;;
76788;SDS011;65740;52.464;13.446;2023-12-04T12:10:15;21.37;;;19.60;;
76788;SDS011;65740;52.464;13.446;2023-12-04T12:12:44;24.40;;;19.80;;
76788;SDS011;65740;52.464;13.446;2023-12-04T12:15:10;21.67;;;19.70;;
76788;SDS011;65740;52.464;13.446;2023-12-04T12:17:40;21.53;;;19.60;;
76788;SDS011;65740;52.464;13.446;2023-12-04T12:20:07;20.43;;;18.53;;
76788;SDS011;65740;52.464;13.446;2023-12-04T12:22:34;22.67;;;20.30;;
76788;SDS011;65740;52.464;13.446;2023-12-04T12:25:04;22.33;;;20.53;;
76788;SDS011;65740;52.464;13.446;2023-12-04T12:27:30;22.10;;;20.60;;
76788;SDS011;65740;52.464;13.446;2023-12-04T12:29:55;22.97;;;21.07;;
76788;SDS011;65740;52.464;13.446;2023-12-04T12:32:21;24.10;;;22.33;;
76788;SDS011;65740;52.464;13.446;2023-12-04T12:34:47;22.07;;;20.00;;
76788;SDS011;65740;52.464;13.446;2023-12-04T12:37:12;22.40;;;20.83;;
76788;SDS011;65740;52.464;13.446;2023-12-04T12:39:38;23.33;;;21.50;;
76788;SDS011;65740;52.464;13.446;2023-12-04T12:42:05;22.60;;;20.80;;
76788;SDS011;65740;52.464;13.446;2023-12-04T12:44:37;24.20;;;22.27;;
76788;SDS011;65740;52.464;13.446;2023-12-04T12:47:05;23.80;;;21.90;;
76788;SDS011;65740;52.464;13.446;2023-12-04T12:49:32;24.67;;;22.40;;
76788;SDS011;65740;52.464;13.446;2023-12-04T12:52:01;26.53;;;24.10;;
76788;SDS011;65740;52.464;13.446;2023-12-04T12:54:30;27.53;;;23.93;;
76788;SDS011;65740;52.464;13.446;2023-12-04T12:56:58;26.40;;;23.80;;
76788;SDS011;65740;52.464;13.446;2023-12-04T12:59:24;27.63;;;25.13;;
76788;SDS011;65740;52.464;13.446;2023-12-04T13:01:50;27.13;;;24.70;;
76788;SDS011;65740;52.464;13.446;2023-12-04T13:04:17;28.80;;;24.10;;
76788;SDS011;65740;52.464;13.446;2023-12-04T13:06:43;27.50;;;24.73;;
76788;SDS011;65740;52.464;13.446;2023-12-04T13:09:11;26.80;;;24.40;;
76788;SDS011;65740;52.464;13.446;2023-12-04T13:11:43;27.57;;;24.77;;
76788;SDS011;65740;52.464;13.446;2023-12-04T13:14:09;27.03;;;24.73;;
76788;SDS011;65740;52.464;13.446;2023-12-04T13:16:35;27.17;;;24.70;;
76788;SDS011;65740;52.464;13.446;2023-12-04T13:19:01;27.53;;;23.90;;
76788;SDS011;65740;52.464;13.446;2023-12-04T13:21:27;26.00;;;23.40;;
76788;SDS011;65740;52.464;13.446;2023-12-04T13:23:53;26.87;;;24.47;;
76788;SDS011;65740;52.464;13.446;2023-12-04T13:26:18;27.43;;;24.00;;
76788;SDS011;65740;52.464;13.446;2023-12-04T13:28:45;24.37;;;22.67;;
76788;SDS011;65740;52.464;13.446;2023-12-04T13:31:11;25.13;;;22.70;;
76788;SDS011;65740;52.464;13.446;2023-12-04T13:33:37;24.03;;;21.97;;
76788;SDS011;65740;52.464;13.446;2023-12-04T13:36:03;24.17;;;22.17;;
76788;SDS011;65740;52.464;13.446;2023-12-04T13:38:29;26.67;;;23.83;;
76788;SDS011;65740;52.464;13.446;2023-12-04T13:40:55;25.20;;;22.90;;
76788;SDS011;65740;52.464;13.446;2023-12-04T13:43:39;24.10;;;21.90;;
76788;SDS011;65740;52.464;13.446;2023-12-04T13:46:18;25.10;;;22.80;;
76788;SDS011;65740;52.464;13.446;2023-12-04T13:48:44;25.40;;;22.80;;
76788;SDS011;65740;52.464;13.446;2023-12-04T13:51:10;24.70;;;22.50;;
76788;SDS011;65740;52.464;13.446;2023-12-04T13:53:36;26.67;;;22.50;;
76788;SDS011;65740;52.464;13.446;2023-12-04T13:56:07;23.60;;;21.90;;
76788;SDS011;65740;52.464;13.446;2023-12-04T13:58:45;24.30;;;22.03;;
76788;SDS011;65740;52.464;13.446;2023-12-04T14:01:11;25.60;;;23.10;;
76788;SDS011;65740;52.464;13.446;2023-12-04T14:03:43;25.00;;;22.83;;
76788;SDS011;65740;52.464;13.446;2023-12-04T14:06:09;24.63;;;22.33;;
76788;SDS011;65740;52.464;13.446;2023-12-04T14:08:35;27.43;;;23.80;;
76788;SDS011;65740;52.464;13.446;2023-12-04T14:11:02;25.77;;;23.17;;